Select Airport:
Chesapeake Regional Airport
Last updated: 18 minutes ago
Flight conditions: IFR
Visibility: 10.0 statute miles
Sky Conditions:
   Broken clouds at 600 feet
   Broken clouds at 1000 feet
   Overcast at 2000 feet
Wind From: 340°
Wind speed: 4 knots (4.6 mph)
Temperature: 5.0°C (41°F)
Dew Point: 4.7°C (40.46°F)
Altimiter setting: 30.11 in-hg
WX phone: 1-757-204-4290
WX freq: 123.675 MHz
Runway 5
   Crosswind component: 3.76 knots (4.32 mph)
   Headwind component: 1.37 knots (1.57 mph)
   NOTE - Close to a 90° crosswind. Active runway may change if wind shifts.
KCPK 180115Z AUTO 34004KT 10SM BKN006 BKN010 OVC020 05/05 A3011 RMK AO2 T00500047
FOR REFERENCE USE ONLY, DATA MAY NOT BE CURRENT.
ALWAYS CHECK FOR UP TO DATE INFORMATION.